CYAM - Sault Ste Marie

Pirep is a free, collaborative database of all public and private airports located within the United States. All pilots are welcome to contribute, edit, and improve any airport they have local knowledge about, no registration required.
Are you familiar with this airport? Help out other pilots by adding your local knowledge.
Uploaded photos will be licensed under a CC BY-SA 4.0 license. Please only upload photos you have the rights to use.
Tags
Public
Undocu­mented
METAR / TAF
Edit Tags
Food
Camping
Lodging
Car Rental
Bicycles
Swimming
Golfing
Fishing
Hot Springs
Museum
Flying Clubs
Airpark
Upcoming Events
No upcoming events. Is anything happening here soon?
*
*
*

Where exactly on/near the airport is this event taking place?

Is there a webpage with more information for this event?

Who should be contacted for more information?

What is this event all about?

Repeat every
Description
Transient Parking
Fuel Location
Landing & Tie-down Fees
Crew Car Availability
Flying Clubs
WiFi Access
Airport Statistics
Location: Sault Ste Marie, CN
Elevation: 630ft
Activation date: Mar 2005
Fuel: None
Runway 04/22: 6,000ft
Runway 12/30: 6,000ft
Access: Open to the public
Current Weather — VFR
  • Weather data is strictly informational and not for flight planning purposes.
  • METAR
    2024-05-26 08:00:00 EDT
    Ceiling Wind Temperature Dewpoint Weather Visbility
    28,000ft 90° @ 5kt 55°F 50°F N/A 20SM
    Clouds: Few @ 13,000ft, Few @ 22,000ft, Broken @ 28,000ft
    Raw: CYAM 261200Z 09005KT 050V110 20SM FEW130 FEW220 BKN280 13/10 A2989 RMK AC1CI1CI5 AC TR SLP126
  • TAF
    2024-05-26 04:00:00 EDT – 2024-05-26 09:00:00 EDT
    Ceiling Wind Weather Visbility
    10,000ft Variable N/A 6SM
    Clouds: Broken @ 10,000ft
    Raw: TAF CYAM 260740Z 2608/2620 VRB03KT P6SM BKN100 TEMPO 2608/2613 5SM BR PROB30 2608/2612 1 1/2SM BR FM261300 15008KT P6SM SCT060 RMK NXT FCST BY 261400Z
  • TAF
    2024-05-26 04:00:00 EDT – 2024-05-26 09:00:00 EDT
    Ceiling Wind Weather Visbility
    Sky clear ° @ kt Mist 5SM
    Raw: TAF CYAM 260740Z 2608/2620 VRB03KT P6SM BKN100 TEMPO 2608/2613 5SM BR PROB30 2608/2612 1 1/2SM BR FM261300 15008KT P6SM SCT060 RMK NXT FCST BY 261400Z
  • TAF
    2024-05-26 04:00:00 EDT – 2024-05-26 08:00:00 EDT
    Ceiling Wind Weather Visbility
    Sky clear ° @ kt Mist 1SM
    Raw: TAF CYAM 260740Z 2608/2620 VRB03KT P6SM BKN100 TEMPO 2608/2613 5SM BR PROB30 2608/2612 1 1/2SM BR FM261300 15008KT P6SM SCT060 RMK NXT FCST BY 261400Z
  • TAF
    2024-05-26 09:00:00 EDT – 2024-05-26 16:00:00 EDT
    Ceiling Wind Weather Visbility
    Sky clear 150° @ 8kt N/A 6SM
    Clouds: Scattered @ 6,000ft
    Raw: TAF CYAM 260740Z 2608/2620 VRB03KT P6SM BKN100 TEMPO 2608/2613 5SM BR PROB30 2608/2612 1 1/2SM BR FM261300 15008KT P6SM SCT060 RMK NXT FCST BY 261400Z
Click/tap to add an annotation marker to the map
Airport Webcams
No webcams added yet.
Direct links to live image URLs will be displayed inline on this page. URLs to separate webpages will be linked to.
URL:
Direct links to live image URLs will be displayed inline on this page. URLs to separate webpages will be linked to.
URL:
Comments
Leave a comment What was your experience like at this airport?